createdAt,value
2017-07-14T00:00:11.468Z,30.7
2017-07-14T00:01:12.198Z,30.7
2017-07-14T00:02:13.197Z,30.6
2017-07-14T00:03:13.885Z,30.4
2017-07-14T00:04:14.893Z,30.5
2017-07-14T00:05:15.582Z,30.4
2017-07-14T00:06:16.292Z,30.5
2017-07-14T00:07:16.998Z,30.3
2017-07-14T00:08:18.009Z,30.5
2017-07-14T00:09:18.758Z,30.5
2017-07-14T00:10:19.442Z,30.5
2017-07-14T00:11:20.286Z,30.7
2017-07-14T00:12:20.931Z,30.7
2017-07-14T00:13:21.686Z,30.6
2017-07-14T00:14:22.732Z,30.6
2017-07-14T00:15:23.387Z,30.5
2017-07-14T00:16:24.095Z,30.5
2017-07-14T00:17:24.812Z,30.4
2017-07-14T00:18:25.511Z,30.5
2017-07-14T00:19:26.318Z,30.6
2017-07-14T00:20:27.068Z,30.5
2017-07-14T00:21:28.184Z,30.5
2017-07-14T00:22:28.973Z,30.6
2017-07-14T00:23:29.626Z,30.6
2017-07-14T00:24:30.403Z,30.6
2017-07-14T00:25:31.202Z,30.6
2017-07-14T00:26:31.913Z,30.7
2017-07-14T00:27:32.994Z,30.5
2017-07-14T00:28:33.712Z,30.5
2017-07-14T00:29:34.795Z,30.6
2017-07-14T00:30:35.536Z,30.5
2017-07-14T00:31:36.375Z,30.5
2017-07-14T00:32:37.060Z,30.5
2017-07-14T00:33:37.831Z,30.5
2017-07-14T00:34:39.239Z,30.5
2017-07-14T00:35:39.893Z,30.5
2017-07-14T00:36:40.758Z,30.5
2017-07-14T00:37:41.500Z,30.5
2017-07-14T00:38:42.216Z,30.5
2017-07-14T00:39:43.017Z,30.6
2017-07-14T00:40:44.016Z,30.4
2017-07-14T00:41:44.875Z,30.4
2017-07-14T00:42:45.577Z,30.5
2017-07-14T00:43:46.274Z,30.6
2017-07-14T00:44:46.945Z,30.4
2017-07-14T00:45:47.682Z,30.5
2017-07-14T00:46:48.721Z,30.5
2017-07-14T00:47:49.455Z,30.5
2017-07-14T00:48:50.214Z,30.6
2017-07-14T00:49:50.864Z,30.3
2017-07-14T00:50:51.605Z,30.5
2017-07-14T00:51:52.321Z,30.4
2017-07-14T00:52:53.314Z,30.6
2017-07-14T00:53:53.988Z,30.6
2017-07-14T00:54:54.780Z,30.5
2017-07-14T00:55:55.439Z,30.5
2017-07-14T00:56:56.255Z,30.5
2017-07-14T00:57:57.004Z,30.6
2017-07-14T00:58:58.023Z,30.6
2017-07-14T00:59:58.757Z,30.6
2017-07-14T01:00:59.509Z,30.6
2017-07-14T01:02:00.339Z,30.4
2017-07-14T01:03:01.145Z,30.6
2017-07-14T01:04:01.820Z,30.4
2017-07-14T01:05:03.186Z,30.6
2017-07-14T01:06:03.889Z,30.6
2017-07-14T01:07:04.613Z,30.5
2017-07-14T01:08:05.352Z,30.4
2017-07-14T01:09:06.141Z,30.8
2017-07-14T01:10:07.001Z,30.6
2017-07-14T01:11:08.028Z,30.5
2017-07-14T01:12:08.754Z,30.7
2017-07-14T01:13:09.410Z,30.7
2017-07-14T01:14:10.200Z,31.1
2017-07-14T01:15:11.085Z,30.9
2017-07-14T01:16:11.723Z,31.0
2017-07-14T01:17:12.467Z,30.8
2017-07-14T01:18:13.457Z,31.0
2017-07-14T01:19:14.165Z,31.0
2017-07-14T01:20:14.874Z,30.8
2017-07-14T01:21:15.616Z,30.9
2017-07-14T01:22:16.308Z,31.1
2017-07-14T01:23:17.004Z,31.0
2017-07-14T01:24:17.962Z,31.1
2017-07-14T01:25:18.644Z,31.0
2017-07-14T01:26:19.332Z,31.1
2017-07-14T01:27:20.007Z,31.0
2017-07-14T01:28:20.719Z,30.9
2017-07-14T01:29:21.398Z,30.9
2017-07-14T01:30:22.395Z,31.0
2017-07-14T01:31:23.087Z,31.2
2017-07-14T01:32:23.766Z,30.8
2017-07-14T01:33:24.466Z,31.1
2017-07-14T01:34:25.266Z,31.1
2017-07-14T01:35:26.009Z,31.1
2017-07-14T01:36:26.950Z,31.0
2017-07-14T01:37:27.642Z,31.0
2017-07-14T01:38:28.405Z,31.2
2017-07-14T01:39:29.309Z,31.1
2017-07-14T01:40:30.069Z,31.2
2017-07-14T01:41:30.808Z,30.9
2017-07-14T01:42:31.768Z,31.0
2017-07-14T01:43:32.449Z,30.9
2017-07-14T01:44:33.457Z,31.4
2017-07-14T01:45:34.156Z,31.3
2017-07-14T01:46:34.843Z,31.3
2017-07-14T01:47:35.527Z,30.9
2017-07-14T01:48:36.484Z,30.9
2017-07-14T01:49:37.259Z,31.4
2017-07-14T01:50:37.959Z,30.9
2017-07-14T01:51:38.647Z,31.3
2017-07-14T01:52:39.387Z,31.5
2017-07-14T01:53:40.081Z,31.4
2017-07-14T01:54:40.793Z,31.4
2017-07-14T01:55:41.462Z,31.3
2017-07-14T01:56:42.209Z,31.4
2017-07-14T01:57:42.898Z,31.3
2017-07-14T01:58:43.588Z,31.3
2017-07-14T01:59:44.284Z,31.3
2017-07-14T02:00:45.277Z,31.3
2017-07-14T02:01:45.971Z,31.4
2017-07-14T02:02:46.731Z,31.3
2017-07-14T02:03:47.417Z,31.3
2017-07-14T02:04:48.160Z,31.3
2017-07-14T02:05:48.842Z,31.4
2017-07-14T02:06:49.876Z,31.4
2017-07-14T02:07:50.566Z,31.5
2017-07-14T02:08:51.278Z,31.6
2017-07-14T02:09:51.951Z,31.5
2017-07-14T02:10:52.642Z,31.4
2017-07-14T02:11:53.451Z,31.5
2017-07-14T02:12:54.435Z,31.5
2017-07-14T02:13:55.176Z,31.4
2017-07-14T02:14:55.919Z,31.4
2017-07-14T02:15:56.597Z,31.3
2017-07-14T02:16:57.445Z,31.4
2017-07-14T02:17:58.187Z,31.5
2017-07-14T02:18:59.170Z,31.5
2017-07-14T02:19:59.871Z,31.5
2017-07-14T02:21:00.577Z,31.4
2017-07-14T02:22:01.304Z,31.4
2017-07-14T02:23:01.976Z,31.5
2017-07-14T02:24:02.643Z,31.6
2017-07-14T02:25:03.633Z,31.6
2017-07-14T02:26:04.433Z,31.5
2017-07-14T02:27:05.125Z,31.6
2017-07-14T02:28:05.791Z,31.7
2017-07-14T02:29:06.545Z,31.5
2017-07-14T02:30:07.245Z,31.7
2017-07-14T02:31:08.530Z,31.5
2017-07-14T02:32:09.176Z,31.7
2017-07-14T02:33:09.881Z,31.5
2017-07-14T02:34:10.622Z,31.4
2017-07-14T02:35:11.350Z,31.5
2017-07-14T02:36:12.087Z,31.6
2017-07-14T02:37:13.127Z,31.5
2017-07-14T02:38:13.832Z,31.5
2017-07-14T02:39:14.505Z,31.7
2017-07-14T02:40:15.195Z,31.5
2017-07-14T02:41:15.926Z,31.7
2017-07-14T02:42:16.638Z,31.5
2017-07-14T02:43:17.642Z,31.5
2017-07-14T02:44:18.379Z,31.5
2017-07-14T02:45:19.030Z,31.8
2017-07-14T02:46:19.735Z,31.5
2017-07-14T02:47:20.471Z,31.6
2017-07-14T02:48:21.162Z,31.6
2017-07-14T02:49:22.149Z,31.9
2017-07-14T02:50:22.842Z,31.4
2017-07-14T02:51:23.534Z,31.6
2017-07-14T02:52:24.222Z,31.6
2017-07-14T02:53:24.979Z,31.4
2017-07-14T02:54:25.668Z,31.7
2017-07-14T02:55:26.759Z,31.5
2017-07-14T02:56:27.764Z,31.3
2017-07-14T02:57:28.483Z,31.7
2017-07-14T02:58:29.134Z,31.9
2017-07-14T02:59:29.825Z,31.5
2017-07-14T03:00:30.603Z,31.9
2017-07-14T03:01:31.529Z,31.5
2017-07-14T03:02:32.279Z,31.9
2017-07-14T03:03:33.283Z,31.9
2017-07-14T03:04:33.965Z,31.8
2017-07-14T03:05:34.727Z,31.9
2017-07-14T03:06:35.392Z,31.5
2017-07-14T03:07:36.368Z,31.9
2017-07-14T03:08:37.055Z,31.6
2017-07-14T03:09:37.748Z,31.7
2017-07-14T03:10:38.533Z,31.6
2017-07-14T03:11:39.214Z,31.4
2017-07-14T03:12:39.967Z,31.8
2017-07-14T03:13:40.899Z,31.6
2017-07-14T03:14:41.599Z,31.5
2017-07-14T03:15:42.288Z,31.5
2017-07-14T03:16:43.296Z,31.6
2017-07-14T03:17:43.993Z,31.6
2017-07-14T03:18:44.739Z,31.5
2017-07-14T03:19:45.664Z,31.6
2017-07-14T03:20:46.521Z,31.7
2017-07-14T03:21:47.221Z,31.4
2017-07-14T03:22:47.913Z,31.5
2017-07-14T03:23:48.610Z,31.7
2017-07-14T03:24:49.337Z,31.5
2017-07-14T03:25:50.373Z,31.4
2017-07-14T03:26:51.068Z,31.5
2017-07-14T03:27:51.760Z,31.6
2017-07-14T03:28:52.512Z,31.5
2017-07-14T03:29:53.530Z,31.5
2017-07-14T03:30:54.265Z,31.6
2017-07-14T03:31:54.955Z,31.4
2017-07-14T03:32:55.896Z,31.5
2017-07-14T03:33:56.970Z,31.7
2017-07-14T03:34:57.649Z,31.4
2017-07-14T03:35:58.348Z,31.6
2017-07-14T03:36:59.053Z,31.5
2017-07-14T03:37:59.740Z,31.5
2017-07-14T03:39:00.775Z,31.7
2017-07-14T03:40:01.517Z,31.5
2017-07-14T03:41:02.191Z,31.5
2017-07-14T03:42:02.928Z,31.7
2017-07-14T03:43:03.950Z,31.6
2017-07-14T03:44:04.653Z,31.6
2017-07-14T03:45:05.583Z,31.6
2017-07-14T03:46:06.466Z,31.5
2017-07-14T03:47:07.165Z,32.0
2017-07-14T03:48:07.859Z,31.8
2017-07-14T03:49:08.533Z,31.9
2017-07-14T03:50:09.240Z,31.8
2017-07-14T03:51:10.293Z,31.5
2017-07-14T03:52:11.062Z,31.3
2017-07-14T03:53:11.770Z,31.8
2017-07-14T03:54:12.471Z,31.9
2017-07-14T03:55:13.156Z,31.5
2017-07-14T03:56:13.939Z,31.7
2017-07-14T03:57:14.940Z,31.8
2017-07-14T03:58:15.713Z,31.8
2017-07-14T03:59:16.341Z,31.9
2017-07-14T04:00:17.086Z,31.9
2017-07-14T04:01:17.980Z,31.4
2017-07-14T04:02:18.675Z,31.7
2017-07-14T04:03:19.624Z,31.4
2017-07-14T04:04:20.312Z,31.5
2017-07-14T04:05:21.307Z,31.8
2017-07-14T04:06:22.089Z,31.3
2017-07-14T04:07:23.134Z,31.7
2017-07-14T04:08:24.110Z,31.9
2017-07-14T04:09:25.060Z,31.9
2017-07-14T04:10:25.769Z,31.9
2017-07-14T04:11:26.505Z,31.5
2017-07-14T04:12:27.187Z,31.8
2017-07-14T04:13:27.887Z,31.9
2017-07-14T04:14:28.578Z,31.4
2017-07-14T04:15:29.278Z,31.6
2017-07-14T04:16:30.424Z,31.6
2017-07-14T04:17:31.186Z,31.5
2017-07-14T04:18:31.894Z,31.8
2017-07-14T04:19:32.642Z,31.4
2017-07-14T04:20:33.383Z,31.5
2017-07-14T04:21:34.272Z,31.4
2017-07-14T04:22:35.269Z,31.5
2017-07-14T04:23:35.967Z,31.5
2017-07-14T04:24:36.720Z,31.5
2017-07-14T04:25:37.418Z,31.6
2017-07-14T04:26:38.210Z,31.6
2017-07-14T04:27:38.896Z,31.5
2017-07-14T04:28:39.631Z,31.4
2017-07-14T04:29:40.575Z,31.5
2017-07-14T04:30:41.266Z,31.5
2017-07-14T04:31:42.178Z,31.7
2017-07-14T04:32:42.882Z,31.5
2017-07-14T04:33:43.558Z,31.5
2017-07-14T04:34:44.284Z,31.5
2017-07-14T04:35:45.327Z,31.6
2017-07-14T04:36:46.048Z,31.4
2017-07-14T04:37:46.713Z,31.6
2017-07-14T04:38:47.435Z,31.5
2017-07-14T04:39:48.187Z,31.6
2017-07-14T04:40:48.883Z,31.6
2017-07-14T04:41:49.977Z,31.5
2017-07-14T04:42:50.671Z,31.7
2017-07-14T04:43:51.729Z,31.6
2017-07-14T04:44:52.406Z,31.5
2017-07-14T04:45:53.068Z,31.4
2017-07-14T04:46:53.767Z,31.5
2017-07-14T04:47:54.809Z,31.7
2017-07-14T04:48:55.516Z,31.6
2017-07-14T04:49:56.262Z,31.6
2017-07-14T04:50:57.248Z,31.5
2017-07-14T04:51:57.976Z,31.6
2017-07-14T04:52:58.713Z,31.5
2017-07-14T04:53:59.664Z,31.5
2017-07-14T04:55:00.361Z,31.6
2017-07-14T04:56:01.058Z,31.5
2017-07-14T04:57:01.754Z,31.7
2017-07-14T04:58:02.508Z,31.5
2017-07-14T04:59:03.199Z,31.4
2017-07-14T05:00:03.897Z,31.5
2017-07-14T05:01:04.895Z,31.6
2017-07-14T05:02:05.597Z,31.4
2017-07-14T05:03:06.283Z,31.6
2017-07-14T05:04:06.973Z,31.4
2017-07-14T05:05:07.709Z,31.5
2017-07-14T05:06:08.407Z,31.5
2017-07-14T05:07:09.338Z,31.6
2017-07-14T05:08:10.044Z,31.7
2017-07-14T05:09:10.744Z,31.5
2017-07-14T05:10:11.425Z,31.6
2017-07-14T05:11:12.109Z,31.6
2017-07-14T05:12:12.829Z,31.6
2017-07-14T05:13:13.518Z,31.6
2017-07-14T05:14:14.238Z,31.7
2017-07-14T05:15:15.172Z,31.5
2017-07-14T05:16:15.860Z,31.6
2017-07-14T05:17:16.602Z,31.5
2017-07-14T05:18:17.560Z,31.5
2017-07-14T05:19:18.274Z,31.7
2017-07-14T05:20:18.942Z,31.3
2017-07-14T05:21:19.679Z,31.5
2017-07-14T05:22:20.405Z,31.5
2017-07-14T05:23:21.104Z,31.5
2017-07-14T05:24:22.145Z,31.6
2017-07-14T05:25:22.883Z,31.3
2017-07-14T05:26:23.573Z,31.4
2017-07-14T05:27:24.272Z,31.4
2017-07-14T05:28:24.970Z,31.6
2017-07-14T05:29:25.671Z,31.4
2017-07-14T05:30:26.373Z,31.4
2017-07-14T05:31:27.363Z,31.5
2017-07-14T05:32:28.065Z,31.5
2017-07-14T05:33:28.739Z,31.6
2017-07-14T05:34:29.467Z,31.5
2017-07-14T05:35:30.274Z,31.5
2017-07-14T05:36:31.025Z,31.4
2017-07-14T05:37:32.012Z,31.4
2017-07-14T05:38:32.773Z,31.5
2017-07-14T05:39:33.456Z,31.2
2017-07-14T05:40:34.158Z,31.1
2017-07-14T05:41:34.847Z,31.5
2017-07-14T05:42:35.545Z,31.3
2017-07-14T05:43:36.523Z,31.4
2017-07-14T05:44:37.333Z,31.2
2017-07-14T05:45:38.146Z,31.0
2017-07-14T05:46:38.855Z,31.6
2017-07-14T05:47:39.521Z,31.2
2017-07-14T05:48:40.261Z,31.3
2017-07-14T05:49:41.220Z,30.9
2017-07-14T05:50:41.996Z,31.3
2017-07-14T05:51:42.715Z,31.4
2017-07-14T05:52:43.754Z,31.1
2017-07-14T05:53:44.441Z,31.3
2017-07-14T05:54:45.125Z,31.0
2017-07-14T05:55:46.243Z,31.2
2017-07-14T05:56:46.934Z,31.2
2017-07-14T05:57:47.626Z,31.4
2017-07-14T05:58:48.294Z,31.1
2017-07-14T05:59:49.063Z,31.4
2017-07-14T06:00:49.794Z,31.4
2017-07-14T06:01:50.754Z,31.3
2017-07-14T06:02:51.456Z,31.3
2017-07-14T06:03:52.144Z,31.2
2017-07-14T06:04:52.927Z,31.4
2017-07-14T06:05:53.723Z,31.1
2017-07-14T06:06:54.448Z,31.2
2017-07-14T06:07:55.445Z,31.1
2017-07-14T06:08:56.125Z,30.9
2017-07-14T06:09:56.822Z,30.8
2017-07-14T06:10:57.512Z,30.9
2017-07-14T06:11:58.272Z,30.7
2017-07-14T06:12:59.035Z,31.1
2017-07-14T06:13:59.703Z,30.6
2017-07-14T06:15:00.680Z,31.1
2017-07-14T06:16:01.570Z,31.1
2017-07-14T06:17:02.258Z,30.6
2017-07-14T06:18:02.954Z,30.5
2017-07-14T06:19:03.664Z,30.5
2017-07-14T06:20:04.529Z,30.6
2017-07-14T06:21:05.548Z,30.5
2017-07-14T06:22:06.229Z,30.5
2017-07-14T06:23:06.943Z,30.6
2017-07-14T06:24:07.846Z,30.4
2017-07-14T06:25:08.866Z,30.4
2017-07-14T06:26:09.628Z,30.6
2017-07-14T06:27:10.635Z,30.3
2017-07-14T06:28:11.342Z,30.3
2017-07-14T06:29:12.036Z,30.2
2017-07-14T06:30:12.728Z,30.4
2017-07-14T06:31:13.406Z,30.3
2017-07-14T06:32:14.104Z,30.3
2017-07-14T06:33:15.056Z,30.1
2017-07-14T06:34:16.279Z,30.1
2017-07-14T06:35:17.153Z,30.0
2017-07-14T06:36:17.817Z,30.5
2017-07-14T06:37:18.513Z,30.4
2017-07-14T06:38:19.213Z,30.4
2017-07-14T06:39:20.317Z,30.1
2017-07-14T06:40:21.015Z,30.2
2017-07-14T06:41:21.776Z,30.1
2017-07-14T06:42:22.462Z,30.1
2017-07-14T06:43:23.186Z,30.0
2017-07-14T06:44:23.914Z,30.0
2017-07-14T06:45:24.948Z,30.0
2017-07-14T06:46:25.671Z,30.1
2017-07-14T06:47:26.343Z,29.9
2017-07-14T06:48:27.049Z,29.9
2017-07-14T06:49:27.864Z,29.9
2017-07-14T06:50:28.570Z,29.9
2017-07-14T06:51:29.509Z,29.7
2017-07-14T06:52:30.213Z,29.8
2017-07-14T06:53:30.913Z,29.7
2017-07-14T06:54:31.768Z,29.8
2017-07-14T06:55:32.468Z,29.7
2017-07-14T06:56:33.182Z,29.7
2017-07-14T06:57:34.130Z,29.7
2017-07-14T06:58:34.827Z,29.8
2017-07-14T06:59:35.577Z,29.8
2017-07-14T07:00:36.250Z,29.8
2017-07-14T07:01:37.014Z,30.1
2017-07-14T07:02:37.999Z,29.9
2017-07-14T07:03:38.689Z,30.2
2017-07-14T07:04:39.380Z,29.6
2017-07-14T07:05:40.107Z,29.6
2017-07-14T07:06:41.036Z,29.5
2017-07-14T07:07:41.735Z,29.6
2017-07-14T07:08:42.742Z,30.0
2017-07-14T07:09:43.750Z,29.9
2017-07-14T07:10:44.467Z,29.7
2017-07-14T07:11:45.303Z,29.6
2017-07-14T07:12:46.007Z,29.7
2017-07-14T07:13:46.677Z,29.7
2017-07-14T07:14:47.390Z,29.7
2017-07-14T07:15:48.335Z,29.7
2017-07-14T07:16:49.241Z,29.6
2017-07-14T07:17:49.946Z,29.6
2017-07-14T07:18:50.687Z,29.7
2017-07-14T07:19:51.384Z,29.6
2017-07-14T07:20:52.363Z,29.5
2017-07-14T07:21:53.393Z,29.6
2017-07-14T07:22:54.102Z,29.5
2017-07-14T07:23:54.801Z,29.6
2017-07-14T07:24:55.501Z,29.6
2017-07-14T07:25:56.226Z,29.4
2017-07-14T07:26:57.028Z,29.6
2017-07-14T07:27:57.720Z,29.5
2017-07-14T07:28:58.668Z,29.6
2017-07-14T07:29:59.376Z,29.6
2017-07-14T07:31:00.096Z,29.9
2017-07-14T07:32:00.758Z,29.5
2017-07-14T07:33:01.454Z,29.8
2017-07-14T07:34:02.142Z,29.5
2017-07-14T07:35:03.143Z,29.8
2017-07-14T07:36:04.167Z,29.4
2017-07-14T07:37:05.130Z,29.7
2017-07-14T07:38:05.831Z,29.4
2017-07-14T07:39:06.835Z,29.7
2017-07-14T07:40:07.527Z,29.8
2017-07-14T07:41:08.491Z,29.7
2017-07-14T07:42:09.170Z,29.8
2017-07-14T07:43:09.871Z,29.4
2017-07-14T07:44:10.905Z,29.7
2017-07-14T07:45:11.590Z,29.7
2017-07-14T07:46:12.280Z,29.7
2017-07-14T07:47:13.221Z,29.8
2017-07-14T07:48:13.916Z,29.7
2017-07-14T07:49:14.615Z,29.7
2017-07-14T07:50:15.305Z,29.7
2017-07-14T07:51:16.015Z,29.5
2017-07-14T07:52:16.718Z,29.6
2017-07-14T07:53:17.417Z,29.8
2017-07-14T07:54:18.122Z,29.7
2017-07-14T07:55:18.826Z,29.4
2017-07-14T07:56:19.512Z,29.7
2017-07-14T07:57:20.205Z,29.5
2017-07-14T07:58:21.389Z,29.2
2017-07-14T07:59:22.151Z,29.5
2017-07-14T08:00:22.907Z,29.8
2017-07-14T08:01:23.601Z,29.8
2017-07-14T08:02:24.301Z,29.5
2017-07-14T08:03:25.311Z,29.5
2017-07-14T08:04:26.314Z,29.3
2017-07-14T08:05:26.997Z,29.5
2017-07-14T08:06:27.781Z,29.5
2017-07-14T08:07:28.493Z,29.5
2017-07-14T08:08:29.199Z,29.5
2017-07-14T08:09:29.901Z,29.3
2017-07-14T08:10:30.627Z,29.4
2017-07-14T08:11:31.297Z,29.5
2017-07-14T08:12:32.060Z,29.4
2017-07-14T08:13:32.710Z,29.4
2017-07-14T08:14:33.456Z,29.3
2017-07-14T08:15:34.413Z,29.2
2017-07-14T08:16:35.110Z,29.3
2017-07-14T08:17:35.810Z,29.4
2017-07-14T08:18:36.554Z,29.2
2017-07-14T08:19:37.248Z,29.3
2017-07-14T08:20:37.961Z,29.1
2017-07-14T08:21:38.899Z,29.1
2017-07-14T08:22:39.912Z,29.2
2017-07-14T08:23:40.812Z,29.1
2017-07-14T08:24:41.519Z,29.3
2017-07-14T08:25:42.207Z,29.0
2017-07-14T08:26:42.959Z,29.1
2017-07-14T08:27:43.656Z,29.1
2017-07-14T08:28:44.657Z,29.1
2017-07-14T08:29:45.362Z,29.0
2017-07-14T08:30:46.103Z,29.0
2017-07-14T08:31:46.839Z,29.1
2017-07-14T08:32:47.535Z,29.0
2017-07-14T08:33:48.225Z,29.2
2017-07-14T08:34:49.244Z,29.1
2017-07-14T08:35:49.953Z,29.2
2017-07-14T08:36:50.650Z,29.2
2017-07-14T08:37:51.350Z,29.2
2017-07-14T08:38:52.346Z,29.2
2017-07-14T08:39:53.042Z,29.2
2017-07-14T08:40:53.979Z,29.3
2017-07-14T08:41:54.814Z,29.2
2017-07-14T08:42:55.871Z,29.1
2017-07-14T08:43:56.605Z,29.2
2017-07-14T08:44:57.304Z,29.2
2017-07-14T08:45:57.999Z,29.1
2017-07-14T08:46:58.704Z,29.3
2017-07-14T08:47:59.705Z,29.3
2017-07-14T08:49:00.463Z,29.0
2017-07-14T08:50:01.179Z,29.3
2017-07-14T08:51:02.169Z,29.3
2017-07-14T08:52:02.923Z,29.0
2017-07-14T08:53:03.634Z,28.9
2017-07-14T08:54:04.343Z,29.0
2017-07-14T08:55:05.125Z,29.3
2017-07-14T08:56:05.802Z,29.1
2017-07-14T08:57:06.543Z,29.3
2017-07-14T08:58:07.248Z,29.0
2017-07-14T08:59:08.256Z,29.3
2017-07-14T09:00:08.957Z,28.8
2017-07-14T09:01:09.634Z,29.0
2017-07-14T09:02:10.338Z,28.8
2017-07-14T09:03:11.046Z,29.0
2017-07-14T09:04:11.803Z,29.2
2017-07-14T09:05:12.530Z,29.3
2017-07-14T09:06:13.209Z,29.1
2017-07-14T09:07:13.941Z,28.9
2017-07-14T09:08:14.648Z,29.1
2017-07-14T09:09:15.629Z,29.1
2017-07-14T09:10:16.323Z,29.1
2017-07-14T09:11:17.049Z,29.0
2017-07-14T09:12:17.736Z,29.0
2017-07-14T09:13:18.483Z,29.0
2017-07-14T09:14:19.196Z,28.7
2017-07-14T09:15:20.199Z,28.8
2017-07-14T09:16:20.916Z,28.8
2017-07-14T09:17:21.588Z,28.9
2017-07-14T09:18:22.426Z,28.7
2017-07-14T09:19:23.138Z,28.6
2017-07-14T09:20:24.146Z,28.7
2017-07-14T09:21:24.842Z,28.7
2017-07-14T09:22:25.522Z,28.6
2017-07-14T09:23:26.558Z,28.7
2017-07-14T09:24:27.243Z,28.7
2017-07-14T09:25:27.937Z,28.5
2017-07-14T09:26:28.928Z,28.7
2017-07-14T09:27:29.634Z,28.7
2017-07-14T09:28:30.319Z,28.7
2017-07-14T09:29:31.313Z,28.5
2017-07-14T09:30:32.023Z,28.5
2017-07-14T09:31:32.761Z,28.4
2017-07-14T09:32:33.732Z,28.3
2017-07-14T09:33:34.416Z,28.7
2017-07-14T09:34:35.369Z,28.3
2017-07-14T09:35:36.058Z,28.2
2017-07-14T09:36:36.803Z,28.3
2017-07-14T09:37:37.806Z,28.3
2017-07-14T09:38:38.805Z,28.4
2017-07-14T09:39:39.511Z,28.4
2017-07-14T09:40:40.221Z,28.3
2017-07-14T09:41:40.898Z,28.3
2017-07-14T09:42:41.606Z,28.3
2017-07-14T09:43:42.598Z,28.2
2017-07-14T09:44:43.537Z,28.3
2017-07-14T09:45:44.224Z,28.5
2017-07-14T09:46:45.072Z,28.3
2017-07-14T09:47:45.850Z,28.4
2017-07-14T09:48:47.115Z,28.5
2017-07-14T09:49:47.804Z,28.4
2017-07-14T09:50:48.496Z,28.7
2017-07-14T09:51:49.196Z,28.3
2017-07-14T09:52:49.885Z,28.3
2017-07-14T09:53:50.577Z,28.6
2017-07-14T09:54:51.516Z,28.3
2017-07-14T09:55:52.273Z,28.3
2017-07-14T09:56:52.957Z,28.4
2017-07-14T09:57:53.648Z,28.3
2017-07-14T09:58:54.351Z,28.6
2017-07-14T09:59:55.133Z,28.6
2017-07-14T10:00:56.063Z,28.3
2017-07-14T10:01:57.005Z,28.3
2017-07-14T10:02:57.723Z,28.1
2017-07-14T10:03:58.375Z,28.5
2017-07-14T10:04:59.068Z,28.5
2017-07-14T10:06:00.077Z,28.6
2017-07-14T10:07:00.748Z,28.6
2017-07-14T10:08:01.465Z,28.5
2017-07-14T10:09:02.168Z,28.5
2017-07-14T10:10:02.890Z,28.5
2017-07-14T10:11:03.636Z,28.6
2017-07-14T10:12:04.638Z,28.3
2017-07-14T10:13:05.336Z,28.2
2017-07-14T10:14:06.195Z,28.2
2017-07-14T10:15:07.050Z,28.3
2017-07-14T10:16:07.754Z,28.3
2017-07-14T10:17:08.511Z,28.4
2017-07-14T10:18:09.576Z,28.2
2017-07-14T10:19:10.322Z,28.4
2017-07-14T10:20:11.018Z,28.3
2017-07-14T10:21:11.769Z,28.3
2017-07-14T10:22:12.560Z,28.1
2017-07-14T10:23:13.237Z,28.2
2017-07-14T10:24:14.286Z,28.2
2017-07-14T10:25:15.007Z,28.2
2017-07-14T10:26:15.710Z,28.3
2017-07-14T10:27:16.464Z,28.6
2017-07-14T10:28:17.162Z,28.3
2017-07-14T10:29:17.979Z,28.0
2017-07-14T10:30:18.998Z,28.1
2017-07-14T10:31:19.935Z,28.0
2017-07-14T10:32:20.685Z,28.6
2017-07-14T10:33:21.377Z,28.3
2017-07-14T10:34:22.229Z,28.3
2017-07-14T10:35:22.931Z,27.7
2017-07-14T10:36:23.982Z,28.5
2017-07-14T10:37:24.670Z,28.3
2017-07-14T10:38:25.384Z,28.2
2017-07-14T10:39:26.158Z,28.2
2017-07-14T10:40:26.855Z,28.0
2017-07-14T10:41:27.557Z,27.6
2017-07-14T10:42:28.630Z,27.5
2017-07-14T10:43:29.294Z,27.6
2017-07-14T10:44:30.087Z,27.8
2017-07-14T10:45:30.782Z,27.8
2017-07-14T10:46:31.490Z,27.9
2017-07-14T10:47:32.436Z,28.1
2017-07-14T10:48:33.157Z,27.5
2017-07-14T10:49:33.828Z,27.8
2017-07-14T10:50:34.541Z,27.8
2017-07-14T10:51:35.224Z,27.5
2017-07-14T10:52:36.129Z,27.1
2017-07-14T10:53:36.813Z,27.1
2017-07-14T10:54:37.767Z,27.3
2017-07-14T10:55:38.457Z,27.2
2017-07-14T10:56:39.178Z,27.5
2017-07-14T10:57:39.861Z,27.6
2017-07-14T10:58:40.630Z,27.0
2017-07-14T10:59:41.336Z,27.0
2017-07-14T11:00:42.404Z,27.0
2017-07-14T11:01:43.077Z,26.8
2017-07-14T11:02:43.916Z,27.1
2017-07-14T11:03:44.695Z,26.4
2017-07-14T11:04:45.425Z,26.9
2017-07-14T11:05:46.118Z,26.7
2017-07-14T11:06:46.819Z,26.7
2017-07-14T11:07:47.533Z,26.2
2017-07-14T11:08:48.371Z,26.7
2017-07-14T11:09:49.081Z,26.7
2017-07-14T11:10:49.880Z,26.8
2017-07-14T11:11:50.797Z,26.7
2017-07-14T11:12:51.562Z,26.8
2017-07-14T11:13:52.661Z,26.7
2017-07-14T11:14:53.367Z,26.4
2017-07-14T11:15:54.074Z,26.4
2017-07-14T11:16:54.760Z,26.3
2017-07-14T11:17:55.763Z,26.4
2017-07-14T11:18:56.466Z,26.7
2017-07-14T11:19:57.151Z,26.4
2017-07-14T11:20:57.857Z,26.3
2017-07-14T11:21:58.567Z,26.5
2017-07-14T11:22:59.271Z,26.5
2017-07-14T11:24:00.020Z,26.6
2017-07-14T11:25:01.006Z,26.3
2017-07-14T11:26:01.715Z,26.7
2017-07-14T11:27:02.420Z,26.3
2017-07-14T11:28:03.191Z,26.7
2017-07-14T11:29:03.936Z,26.7
2017-07-14T11:30:04.718Z,26.3
2017-07-14T11:31:05.676Z,26.3
2017-07-14T11:32:06.422Z,26.4
2017-07-14T11:33:07.174Z,26.7
2017-07-14T11:34:07.862Z,26.4
2017-07-14T11:35:08.553Z,26.3
2017-07-14T11:36:09.271Z,26.8
2017-07-14T11:37:10.306Z,26.3
2017-07-14T11:38:11.014Z,26.3
2017-07-14T11:39:11.777Z,26.3
2017-07-14T11:40:12.461Z,26.9
2017-07-14T11:41:13.167Z,26.3
2017-07-14T11:42:13.855Z,26.3
2017-07-14T11:43:14.795Z,26.2
2017-07-14T11:44:15.554Z,26.3
2017-07-14T11:45:16.248Z,26.2
2017-07-14T11:46:17.009Z,26.5
2017-07-14T11:47:17.778Z,26.3
2017-07-14T11:48:18.580Z,26.6
2017-07-14T11:49:19.568Z,26.5
2017-07-14T11:50:20.268Z,26.3
2017-07-14T11:51:20.953Z,26.3
2017-07-14T11:52:21.680Z,26.5
2017-07-14T11:53:22.362Z,26.7
2017-07-14T11:54:23.129Z,26.6
2017-07-14T11:55:23.871Z,26.2
2017-07-14T11:56:24.879Z,26.5
2017-07-14T11:57:25.552Z,26.7
2017-07-14T11:58:26.250Z,26.6
2017-07-14T11:59:27.205Z,26.3
2017-07-14T12:00:27.973Z,26.3
2017-07-14T12:01:28.665Z,26.7
2017-07-14T12:02:29.371Z,26.3
2017-07-14T12:03:30.061Z,26.3
2017-07-14T12:04:30.827Z,26.3
2017-07-14T12:05:31.522Z,26.4
2017-07-14T12:06:32.233Z,26.3
2017-07-14T12:07:32.935Z,26.5
2017-07-14T12:08:33.956Z,26.4
2017-07-14T12:09:34.696Z,26.8
2017-07-14T12:10:35.464Z,26.7
2017-07-14T12:11:36.154Z,26.7
2017-07-14T12:12:36.903Z,26.4
2017-07-14T12:13:37.737Z,26.3
2017-07-14T12:14:38.755Z,26.4
2017-07-14T12:15:39.545Z,26.4
2017-07-14T12:16:40.281Z,26.5
2017-07-14T12:17:40.988Z,26.3
2017-07-14T12:18:41.823Z,26.3
2017-07-14T12:19:42.508Z,26.4
2017-07-14T12:20:43.452Z,26.2
2017-07-14T12:21:44.152Z,26.3
2017-07-14T12:22:44.868Z,26.6
2017-07-14T12:23:45.613Z,26.2
2017-07-14T12:24:46.386Z,26.5
2017-07-14T12:25:47.104Z,26.3
2017-07-14T12:26:48.108Z,26.6
2017-07-14T12:27:48.797Z,26.6
2017-07-14T12:28:49.571Z,26.3
2017-07-14T12:29:50.253Z,26.5
2017-07-14T12:30:51.022Z,26.5
2017-07-14T12:31:52.042Z,26.7
2017-07-14T12:32:53.056Z,26.5
2017-07-14T12:33:53.964Z,26.3
2017-07-14T12:34:55.002Z,26.3
2017-07-14T12:35:55.702Z,26.7
2017-07-14T12:36:56.404Z,26.8
2017-07-14T12:37:57.129Z,26.9
2017-07-14T12:38:57.967Z,26.9
2017-07-14T12:39:58.905Z,26.4
2017-07-14T12:40:59.624Z,26.3
2017-07-14T12:42:00.312Z,26.9
2017-07-14T12:43:01.008Z,26.5
2017-07-14T12:44:02.078Z,26.3
2017-07-14T12:45:02.844Z,26.8
2017-07-14T12:46:03.958Z,26.5
2017-07-14T12:47:04.655Z,26.4
2017-07-14T12:48:05.366Z,26.5
2017-07-14T12:49:06.079Z,26.7
2017-07-14T12:50:06.750Z,26.3
2017-07-14T12:51:07.563Z,26.8
2017-07-14T12:52:08.242Z,26.6
2017-07-14T12:53:09.487Z,26.3
2017-07-14T12:54:10.506Z,26.2
2017-07-14T12:55:11.190Z,26.7
2017-07-14T12:56:11.889Z,26.6
2017-07-14T12:57:12.605Z,26.6
2017-07-14T12:58:13.407Z,26.7
2017-07-14T12:59:14.499Z,26.6
2017-07-14T13:00:15.203Z,26.6
2017-07-14T13:01:15.965Z,26.7
2017-07-14T13:02:16.674Z,27.0
2017-07-14T13:03:17.415Z,27.4
2017-07-14T13:04:18.165Z,27.0
2017-07-14T13:05:19.162Z,27.0
2017-07-14T13:06:19.918Z,26.9
2017-07-14T13:07:20.609Z,27.3
2017-07-14T13:08:21.307Z,27.1
2017-07-14T13:09:22.046Z,27.5
2017-07-14T13:10:22.808Z,27.5
2017-07-14T13:11:23.817Z,27.7
2017-07-14T13:12:24.521Z,27.6
2017-07-14T13:13:25.207Z,27.7
2017-07-14T13:14:25.977Z,27.6
2017-07-14T13:15:26.653Z,27.3
2017-07-14T13:16:27.679Z,27.7
2017-07-14T13:17:28.749Z,27.9
2017-07-14T13:18:29.444Z,27.9
2017-07-14T13:19:30.162Z,27.2
2017-07-14T13:20:30.900Z,27.7
2017-07-14T13:21:31.585Z,27.7
2017-07-14T13:22:32.291Z,27.8
2017-07-14T13:23:32.975Z,27.8
2017-07-14T13:24:33.691Z,27.4
2017-07-14T13:25:34.437Z,28.1
2017-07-14T13:26:35.133Z,27.6
2017-07-14T13:27:35.932Z,28.4
2017-07-14T13:28:36.681Z,28.3